Time;durP1;ratioP1;P1;durP2;ratioP2;P2;SDS_P1;SDS_P2;PMS_P1;PMS_P2;Temp;Humidity;BMP_temperature;BMP_pressure;BME280_temperature;BME280_humidity;BME280_pressure;Samples;Min_cycle;Max_cycle;Signal;HPM_P1;HPM_P2
2022/03/28 00:01:10;;;;;;;;;;;12.90;90.50;;;;;;5055698;28;19908;-85
2022/03/28 00:03:36;;;;;;;;;;;12.80;90.40;;;;;;5055759;28;19967;-84
2022/03/28 00:06:03;;;;;;;;;;;12.70;90.40;;;;;;5046781;28;19924;-84
2022/03/28 00:08:28;;;;;;;;;;;12.70;90.40;;;;;;5037611;28;20285;-84
2022/03/28 00:10:54;;;;;;;;;;;12.50;90.80;;;;;;5055915;28;19912;-85
2022/03/28 00:13:20;;;;;;;;;;;12.60;90.90;;;;;;5055192;28;19940;-84
2022/03/28 00:15:46;;;;;;;;;;;12.50;90.90;;;;;;5055405;28;20265;-85
2022/03/28 00:18:12;;;;;;;;;;;12.30;91.40;;;;;;5055339;28;19999;-85
2022/03/28 00:20:37;;;;;;;;;;;12.20;92.10;;;;;;5055242;28;19909;-84
2022/03/28 00:23:03;;;;;;;;;;;12.10;92.40;;;;;;5053289;28;19913;-84
2022/03/28 00:25:29;;;;;;;;;;;11.80;93.40;;;;;;5055480;28;19940;-84
2022/03/28 00:27:54;;;;;;;;;;;11.80;94.10;;;;;;5031624;28;19925;-85
2022/03/28 00:30:20;;;;;;;;;;;11.80;94.20;;;;;;5037080;28;19951;-84
2022/03/28 00:32:45;;;;;;;;;;;11.70;94.30;;;;;;5055068;28;19915;-85
2022/03/28 00:35:11;;;;;;;;;;;11.60;95.30;;;;;;5055112;28;20377;-84
2022/03/28 00:37:38;;;;;;;;;;;11.60;95.70;;;;;;5070428;28;19916;-86
2022/03/28 00:40:05;;;;;;;;;;;11.70;95.30;;;;;;5057110;28;19915;-85
2022/03/28 00:42:31;;;;;;;;;;;11.80;95.60;;;;;;5056530;28;19916;-84
2022/03/28 00:44:56;;;;;;;;;;;11.80;95.50;;;;;;5074597;28;19908;-85
2022/03/28 00:47:22;;;;;;;;;;;11.50;96.40;;;;;;5056548;28;19909;-84
2022/03/28 00:49:48;;;;;;;;;;;11.50;96.30;;;;;;5074878;28;19908;-85
2022/03/28 00:52:14;;;;;;;;;;;11.50;96.50;;;;;;5074738;28;19916;-85
2022/03/28 00:54:39;;;;;;;;;;;11.60;96.00;;;;;;5074491;28;19908;-85
2022/03/28 00:57:05;;;;;;;;;;;11.60;96.10;;;;;;5074242;28;19909;-84
2022/03/28 00:59:32;;;;;;;;;;;11.60;96.10;;;;;;5074722;28;19915;-86
2022/03/28 01:02:02;;;;;;;;;;;11.70;96.40;;;;;;5074522;28;20390;-85
2022/03/28 01:04:28;;;;;;;;;;;11.70;95.60;;;;;;5056627;28;19916;-85
2022/03/28 01:06:54;;;;;;;;;;;11.70;96.00;;;;;;5074011;28;19909;-84
2022/03/28 01:09:19;;;;;;;;;;;11.70;95.40;;;;;;5056574;28;19924;-84
2022/03/28 01:11:45;;;;;;;;;;;11.60;95.10;;;;;;5074477;28;20340;-85
2022/03/28 01:14:11;;;;;;;;;;;11.70;93.70;;;;;;5074269;28;20411;-85
2022/03/28 01:18:05;;;;;;;;;;;11.70;93.20;;;;;;5073979;28;19956;-85
2022/03/28 01:19:25;;;;;;;;;;;11.60;92.80;;;;;;5073876;28;20436;-84
2022/03/28 01:21:52;;;;;;;;;;;11.60;92.50;;;;;;5074187;28;19909;-85
2022/03/28 01:24:17;;;;;;;;;;;11.60;92.50;;;;;;5073992;28;19912;-83
2022/03/28 01:26:43;;;;;;;;;;;11.40;92.90;;;;;;5065225;28;19909;-84
2022/03/28 01:29:09;;;;;;;;;;;11.30;93.40;;;;;;5045228;28;19920;-84
2022/03/28 01:31:38;;;;;;;;;;;11.40;93.60;;;;;;5054081;28;19913;-84
2022/03/28 01:34:04;;;;;;;;;;;11.40;93.70;;;;;;5035953;28;19943;-84
2022/03/28 01:36:30;;;;;;;;;;;11.20;93.90;;;;;;5035691;28;19908;-84
2022/03/28 01:38:55;;;;;;;;;;;11.10;94.30;;;;;;5053912;28;19909;-85
2022/03/28 01:41:21;;;;;;;;;;;10.70;96.10;;;;;;5053695;28;19909;-84
2022/03/28 01:43:46;;;;;;;;;;;10.70;96.90;;;;;;5053784;28;20428;-84
2022/03/28 01:46:12;;;;;;;;;;;10.60;97.30;;;;;;5053360;28;19909;-85
2022/03/28 01:48:38;;;;;;;;;;;10.60;97.00;;;;;;5053752;28;19916;-84
2022/03/28 01:51:04;;;;;;;;;;;10.60;96.90;;;;;;5035840;28;19916;-85
2022/03/28 01:53:29;;;;;;;;;;;10.70;96.70;;;;;;5053610;28;19915;-84
2022/03/28 01:55:55;;;;;;;;;;;10.90;96.20;;;;;;5052644;28;19931;-85
2022/03/28 01:58:20;;;;;;;;;;;11.10;94.80;;;;;;5053570;28;20281;-84
2022/03/28 02:00:46;;;;;;;;;;;11.10;94.20;;;;;;5035742;28;20007;-86
2022/03/28 02:03:11;;;;;;;;;;;11.00;94.20;;;;;;5053385;28;19913;-85
2022/03/28 02:05:37;;;;;;;;;;;11.00;93.90;;;;;;5053319;28;19916;-85
2022/03/28 02:08:03;;;;;;;;;;;10.70;94.00;;;;;;5052997;28;19923;-84
2022/03/28 02:10:28;;;;;;;;;;;10.40;95.50;;;;;;5053329;28;19909;-84
2022/03/28 02:12:54;;;;;;;;;;;10.60;95.50;;;;;;5053381;28;20400;-84
2022/03/28 02:15:20;;;;;;;;;;;10.70;95.40;;;;;;5053245;28;19909;-85
2022/03/28 02:17:46;;;;;;;;;;;10.80;95.30;;;;;;5052907;28;19928;-85
2022/03/28 02:20:12;;;;;;;;;;;10.90;94.40;;;;;;5035371;28;19909;-84
2022/03/28 02:22:39;;;;;;;;;;;10.70;94.30;;;;;;5053192;28;19995;-84
2022/03/28 02:25:05;;;;;;;;;;;10.70;94.40;;;;;;5053288;28;19928;-85
2022/03/28 02:27:31;;;;;;;;;;;10.70;94.30;;;;;;5052738;28;19991;-84
2022/03/28 02:29:56;;;;;;;;;;;10.60;93.80;;;;;;5053005;28;19940;-84
2022/03/28 02:32:22;;;;;;;;;;;10.50;93.80;;;;;;5053158;28;19994;-85
2022/03/28 02:34:48;;;;;;;;;;;10.40;94.20;;;;;;5053078;28;19935;-85
2022/03/28 02:37:14;;;;;;;;;;;10.10;95.20;;;;;;5052727;28;19962;-84
2022/03/28 02:39:39;;;;;;;;;;;9.90;96.00;;;;;;5053102;28;19909;-85
2022/03/28 02:42:05;;;;;;;;;;;10.00;96.30;;;;;;5052874;28;19908;-84
2022/03/28 02:44:31;;;;;;;;;;;10.20;95.80;;;;;;5052971;28;19920;-85
2022/03/28 02:46:56;;;;;;;;;;;10.10;96.00;;;;;;5060433;28;19909;-85
2022/03/28 02:49:22;;;;;;;;;;;10.20;96.10;;;;;;5073043;28;19940;-84
2022/03/28 02:51:48;;;;;;;;;;;10.40;96.10;;;;;;5055006;28;20285;-85
2022/03/28 02:54:13;;;;;;;;;;;10.50;95.30;;;;;;5072860;28;19962;-85
2022/03/28 02:56:39;;;;;;;;;;;10.50;94.60;;;;;;5072688;28;19909;-83
2022/03/28 02:59:04;;;;;;;;;;;10.40;94.30;;;;;;5073063;28;20460;-85
2022/03/28 03:01:30;;;;;;;;;;;10.10;94.60;;;;;;5054944;28;19908;-84
2022/03/28 03:03:56;;;;;;;;;;;10.10;94.90;;;;;;5072939;28;19913;-84
2022/03/28 03:06:21;;;;;;;;;;;10.20;95.00;;;;;;5054481;28;20327;-85
2022/03/28 03:08:47;;;;;;;;;;;10.30;94.70;;;;;;5075894;28;20360;-85
2022/03/28 03:11:13;;;;;;;;;;;10.20;94.30;;;;;;5076863;28;19908;-85
2022/03/28 03:13:39;;;;;;;;;;;10.10;95.40;;;;;;5076655;28;19934;-84
2022/03/28 03:16:05;;;;;;;;;;;9.90;96.00;;;;;;5076702;28;19916;-84
2022/03/28 03:18:30;;;;;;;;;;;10.10;96.00;;;;;;5090689;28;20014;-84
2022/03/28 03:20:56;;;;;;;;;;;10.10;95.70;;;;;;5096830;28;20348;-83
2022/03/28 03:23:22;;;;;;;;;;;9.90;95.60;;;;;;5096757;28;19916;-85
2022/03/28 03:25:48;;;;;;;;;;;9.90;96.60;;;;;;5096701;28;20046;-85
2022/03/28 03:28:14;;;;;;;;;;;10.00;96.30;;;;;;5077226;28;19920;-85
2022/03/28 03:30:40;;;;;;;;;;;10.10;96.60;;;;;;5096542;28;19915;-84
2022/03/28 03:33:07;;;;;;;;;;;10.00;96.90;;;;;;5096637;28;20002;-84
2022/03/28 03:35:33;;;;;;;;;;;9.80;97.00;;;;;;5096504;28;20284;-83
2022/03/28 03:37:58;;;;;;;;;;;9.70;98.20;;;;;;5081187;28;19908;-84
2022/03/28 03:40:24;;;;;;;;;;;9.90;97.60;;;;;;5076208;28;20292;-84
2022/03/28 03:42:50;;;;;;;;;;;9.90;96.20;;;;;;5075770;28;19952;-85
2022/03/28 03:45:15;;;;;;;;;;;9.80;96.40;;;;;;5058177;28;19916;-84
2022/03/28 03:47:41;;;;;;;;;;;9.70;96.60;;;;;;5057650;28;20284;-84
2022/03/28 03:50:07;;;;;;;;;;;9.50;96.90;;;;;;5058069;28;19909;-85
2022/03/28 03:52:33;;;;;;;;;;;9.40;97.10;;;;;;5075874;28;19909;-84
2022/03/28 03:54:58;;;;;;;;;;;9.30;97.50;;;;;;5075789;28;19909;-83
2022/03/28 03:57:25;;;;;;;;;;;9.40;98.00;;;;;;5075489;28;20018;-84
2022/03/28 03:59:50;;;;;;;;;;;9.50;98.20;;;;;;5075796;28;19961;-86
2022/03/28 04:02:16;;;;;;;;;;;9.60;98.10;;;;;;5075871;28;19987;-83
2022/03/28 04:04:41;;;;;;;;;;;9.70;97.90;;;;;;5075562;28;19961;-86
2022/03/28 04:07:07;;;;;;;;;;;9.80;97.90;;;;;;5075359;28;20392;-84
2022/03/28 04:09:33;;;;;;;;;;;9.50;98.00;;;;;;5075649;28;19908;-84
2022/03/28 04:11:58;;;;;;;;;;;9.40;99.00;;;;;;5075549;28;19915;-85
2022/03/28 04:14:24;;;;;;;;;;;9.60;98.70;;;;;;5074399;28;19992;-84
2022/03/28 04:16:49;;;;;;;;;;;9.80;97.70;;;;;;5074355;28;20400;-85
2022/03/28 04:19:15;;;;;;;;;;;9.70;96.20;;;;;;5055058;28;19944;-84
2022/03/28 04:21:41;;;;;;;;;;;9.50;96.20;;;;;;5055411;28;19909;-85
2022/03/28 04:24:07;;;;;;;;;;;9.30;96.30;;;;;;5055268;28;19966;-85
2022/03/28 04:26:32;;;;;;;;;;;8.90;97.40;;;;;;5038452;28;19909;-83
2022/03/28 04:28:58;;;;;;;;;;;8.60;99.90;;;;;;5036853;28;20324;-83
2022/03/28 04:31:24;;;;;;;;;;;8.70;99.90;;;;;;5055319;28;20435;-83
2022/03/28 04:33:49;;;;;;;;;;;8.90;99.90;;;;;;5055122;28;19948;-87
2022/03/28 04:36:15;;;;;;;;;;;9.30;99.90;;;;;;5055189;28;19916;-85
2022/03/28 04:38:40;;;;;;;;;;;9.30;99.90;;;;;;5036714;28;19992;-83
2022/03/28 04:41:06;;;;;;;;;;;9.30;99.90;;;;;;5054873;28;19913;-86
2022/03/28 04:43:32;;;;;;;;;;;9.60;99.90;;;;;;5037137;28;20007;-86
2022/03/28 04:45:57;;;;;;;;;;;9.80;99.90;;;;;;5037023;28;19915;-86
2022/03/28 04:48:23;;;;;;;;;;;9.70;99.10;;;;;;5036659;28;19908;-85
2022/03/28 04:50:49;;;;;;;;;;;9.80;98.60;;;;;;5054846;28;20296;-85
2022/03/28 04:53:16;;;;;;;;;;;9.80;97.70;;;;;;5036824;28;20301;-84
2022/03/28 04:55:42;;;;;;;;;;;9.80;97.00;;;;;;5054723;28;19916;-83
2022/03/28 04:58:08;;;;;;;;;;;9.70;95.90;;;;;;5054494;28;20324;-83
2022/03/28 05:00:33;;;;;;;;;;;9.60;95.30;;;;;;5054719;28;20281;-85
2022/03/28 05:02:59;;;;;;;;;;;9.50;95.20;;;;;;5036654;28;19917;-82
2022/03/28 05:05:25;;;;;;;;;;;9.50;95.40;;;;;;5054556;28;20370;-84
2022/03/28 05:07:50;;;;;;;;;;;9.40;95.20;;;;;;5036202;28;19935;-83
2022/03/28 05:10:16;;;;;;;;;;;9.30;95.20;;;;;;5054438;28;19909;-85
2022/03/28 05:12:41;;;;;;;;;;;9.30;95.40;;;;;;5054489;28;19915;-84
2022/03/28 05:15:07;;;;;;;;;;;9.10;96.00;;;;;;5054403;28;19909;-85
2022/03/28 05:17:33;;;;;;;;;;;9.00;96.70;;;;;;5053827;28;19925;-85
2022/03/28 05:19:59;;;;;;;;;;;9.10;96.70;;;;;;5036342;28;20261;-84
2022/03/28 05:22:25;;;;;;;;;;;9.10;96.30;;;;;;5054249;28;19920;-86
2022/03/28 05:24:51;;;;;;;;;;;9.10;96.20;;;;;;5054183;28;19913;-84
2022/03/28 05:27:16;;;;;;;;;;;9.10;96.30;;;;;;5035127;28;19920;-84
2022/03/28 05:29:44;;;;;;;;;;;8.90;96.50;;;;;;5052785;28;20206;-84
2022/03/28 05:32:10;;;;;;;;;;;9.00;96.70;;;;;;5053869;28;20442;-85
2022/03/28 05:34:36;;;;;;;;;;;9.10;96.70;;;;;;5054106;28;19931;-85
2022/03/28 05:37:04;;;;;;;;;;;9.10;96.60;;;;;;5038955;28;20433;-84
2022/03/28 05:39:31;;;;;;;;;;;9.10;96.70;;;;;;5073862;28;19908;-84
2022/03/28 05:41:57;;;;;;;;;;;9.10;96.50;;;;;;5073572;28;19960;-84
2022/03/28 05:44:22;;;;;;;;;;;9.10;96.40;;;;;;5073733;28;19951;-84
2022/03/28 05:46:48;;;;;;;;;;;8.90;96.70;;;;;;5072896;28;20328;-86
2022/03/28 05:49:14;;;;;;;;;;;8.80;98.40;;;;;;5053712;28;19912;-83
2022/03/28 05:51:40;;;;;;;;;;;8.90;98.70;;;;;;5053898;28;19916;-85
2022/03/28 05:54:05;;;;;;;;;;;9.00;98.60;;;;;;5053458;28;20281;-85
2022/03/28 05:56:31;;;;;;;;;;;8.90;98.30;;;;;;5053646;28;19987;-84
2022/03/28 05:58:57;;;;;;;;;;;8.90;99.20;;;;;;5035085;28;19908;-84
2022/03/28 06:01:22;;;;;;;;;;;9.10;98.20;;;;;;5035698;28;19909;-84
2022/03/28 06:03:48;;;;;;;;;;;9.20;97.40;;;;;;5053530;28;20420;-84
2022/03/28 06:06:14;;;;;;;;;;;9.20;97.50;;;;;;5053411;28;19913;-85
2022/03/28 06:08:39;;;;;;;;;;;9.10;98.10;;;;;;5053144;28;19908;-84
2022/03/28 06:11:05;;;;;;;;;;;9.20;97.80;;;;;;5053445;28;19913;-84
2022/03/28 06:13:31;;;;;;;;;;;9.40;97.60;;;;;;5053428;28;19962;-84
2022/03/28 06:15:57;;;;;;;;;;;9.20;98.10;;;;;;5035448;28;19909;-85
2022/03/28 06:18:23;;;;;;;;;;;9.20;99.20;;;;;;5052682;28;19928;-84
2022/03/28 06:20:49;;;;;;;;;;;9.30;99.30;;;;;;5053563;28;20315;-85
2022/03/28 06:23:14;;;;;;;;;;;9.50;99.30;;;;;;5053233;28;19916;-85
2022/03/28 06:25:40;;;;;;;;;;;9.60;98.30;;;;;;5053246;28;20039;-85
2022/03/28 06:28:06;;;;;;;;;;;9.80;97.90;;;;;;5034294;28;19917;-85
2022/03/28 06:30:31;;;;;;;;;;;9.90;96.90;;;;;;5052946;28;20305;-84
2022/03/28 06:32:57;;;;;;;;;;;10.00;96.00;;;;;;5053250;28;19909;-85
2022/03/28 06:35:23;;;;;;;;;;;10.00;96.60;;;;;;5053097;28;19915;-83
2022/03/28 06:37:52;;;;;;;;;;;10.00;97.40;;;;;;5052893;28;19912;-84
2022/03/28 06:40:17;;;;;;;;;;;10.20;96.90;;;;;;5053196;28;19955;-85
2022/03/28 06:42:43;;;;;;;;;;;10.20;96.20;;;;;;5037963;28;19944;-86
2022/03/28 06:45:10;;;;;;;;;;;10.30;95.70;;;;;;5057229;28;19909;-85
2022/03/28 06:47:36;;;;;;;;;;;10.50;95.80;;;;;;5056851;28;20416;-86
2022/03/28 06:50:02;;;;;;;;;;;10.50;96.30;;;;;;5057317;28;20427;-84
2022/03/28 06:52:28;;;;;;;;;;;10.70;95.90;;;;;;5057043;28;19936;-85
2022/03/28 06:54:53;;;;;;;;;;;10.80;95.60;;;;;;5057024;28;19916;-85
2022/03/28 06:57:19;;;;;;;;;;;11.00;95.70;;;;;;5038916;28;19923;-84
2022/03/28 06:59:45;;;;;;;;;;;10.90;95.70;;;;;;5057001;28;19919;-85
2022/03/28 07:02:10;;;;;;;;;;;10.80;96.10;;;;;;5057005;28;19909;-85
2022/03/28 07:04:36;;;;;;;;;;;11.30;95.80;;;;;;5038898;28;19960;-86
2022/03/28 07:07:02;;;;;;;;;;;11.60;94.60;;;;;;5056670;28;19909;-85
2022/03/28 07:09:27;;;;;;;;;;;11.90;94.00;;;;;;5056743;28;20285;-85
2022/03/28 07:11:53;;;;;;;;;;;12.10;93.40;;;;;;5057133;28;19915;-85
2022/03/28 07:14:19;;;;;;;;;;;12.10;93.00;;;;;;5056760;28;19913;-85
2022/03/28 07:16:45;;;;;;;;;;;12.20;92.70;;;;;;5056599;28;19920;-86
2022/03/28 07:19:11;;;;;;;;;;;12.50;92.90;;;;;;5056193;28;19928;-84
2022/03/28 07:21:36;;;;;;;;;;;12.80;92.50;;;;;;5056506;28;19909;-86
2022/03/28 07:24:02;;;;;;;;;;;13.00;92.20;;;;;;5056533;28;19926;-85
2022/03/28 07:26:28;;;;;;;;;;;13.20;91.30;;;;;;5056529;28;19992;-84
2022/03/28 07:28:58;;;;;;;;;;;13.10;91.90;;;;;;5019728;28;20484;-85
2022/03/28 07:31:23;;;;;;;;;;;13.10;92.50;;;;;;5056372;28;19913;-85
2022/03/28 07:33:49;;;;;;;;;;;13.30;92.70;;;;;;5038432;28;20274;-86
2022/03/28 07:36:15;;;;;;;;;;;13.60;92.40;;;;;;5038710;28;20250;-85
2022/03/28 07:38:41;;;;;;;;;;;13.60;91.80;;;;;;5055868;28;19967;-85
2022/03/28 07:41:06;;;;;;;;;;;13.50;92.90;;;;;;5056273;28;19909;-86
2022/03/28 07:43:32;;;;;;;;;;;13.60;92.70;;;;;;5056072;28;20404;-85
2022/03/28 07:45:58;;;;;;;;;;;13.80;91.80;;;;;;5056158;28;20003;-85
2022/03/28 07:48:23;;;;;;;;;;;13.90;92.40;;;;;;5037822;28;19909;-85
2022/03/28 07:50:49;;;;;;;;;;;14.00;91.90;;;;;;5038072;28;19908;-84
2022/03/28 07:53:15;;;;;;;;;;;14.10;91.50;;;;;;5054916;28;19913;-86
2022/03/28 07:55:42;;;;;;;;;;;14.00;90.90;;;;;;5037841;28;20361;-85
2022/03/28 07:58:08;;;;;;;;;;;14.00;91.00;;;;;;5063357;28;20015;-85
2022/03/28 08:00:34;;;;;;;;;;;14.10;90.70;;;;;;5057841;28;20426;-86
2022/03/28 08:03:00;;;;;;;;;;;14.30;90.40;;;;;;5057783;28;19913;-85
2022/03/28 08:05:26;;;;;;;;;;;14.40;89.80;;;;;;5075615;28;19912;-86
2022/03/28 08:07:53;;;;;;;;;;;14.50;88.90;;;;;;5070014;28;20464;-85
2022/03/28 08:10:19;;;;;;;;;;;14.70;88.20;;;;;;5055768;28;19909;-86
2022/03/28 08:12:45;;;;;;;;;;;15.00;88.40;;;;;;5055603;28;19915;-86
2022/03/28 08:15:11;;;;;;;;;;;15.30;86.40;;;;;;5055689;28;19909;-84
2022/03/28 08:17:37;;;;;;;;;;;15.50;86.00;;;;;;5055187;28;19936;-85
2022/03/28 08:20:06;;;;;;;;;;;15.70;84.10;;;;;;5037598;28;20431;-84
2022/03/28 08:22:32;;;;;;;;;;;16.00;83.70;;;;;;5055460;28;20400;-85
2022/03/28 08:24:58;;;;;;;;;;;16.30;82.30;;;;;;5055285;28;19962;-85
2022/03/28 08:27:24;;;;;;;;;;;16.70;79.90;;;;;;5054200;28;20032;-84
2022/03/28 08:29:49;;;;;;;;;;;17.00;77.80;;;;;;5041195;28;19926;-85
2022/03/28 08:32:15;;;;;;;;;;;17.00;77.00;;;;;;5055395;28;20296;-86
2022/03/28 08:34:41;;;;;;;;;;;16.70;76.70;;;;;;5055191;28;20400;-85
2022/03/28 08:37:09;;;;;;;;;;;16.70;77.30;;;;;;5055248;28;19909;-86
2022/03/28 08:39:35;;;;;;;;;;;16.70;77.60;;;;;;5054602;28;20065;-85
2022/03/28 08:42:00;;;;;;;;;;;16.80;78.80;;;;;;5036931;28;19909;-84
2022/03/28 08:44:27;;;;;;;;;;;16.80;77.70;;;;;;5055006;28;19967;-84
2022/03/28 08:46:54;;;;;;;;;;;16.80;78.10;;;;;;5054920;28;19908;-85
2022/03/28 08:49:19;;;;;;;;;;;16.90;78.30;;;;;;5054480;28;20000;-84
2022/03/28 08:51:45;;;;;;;;;;;17.00;78.60;;;;;;5036956;28;19948;-86
2022/03/28 08:54:12;;;;;;;;;;;17.00;77.90;;;;;;5054648;28;20270;-85
2022/03/28 08:56:38;;;;;;;;;;;16.90;78.70;;;;;;5036940;28;19909;-87
2022/03/28 08:59:05;;;;;;;;;;;17.10;78.60;;;;;;5054246;28;19966;-85
2022/03/28 09:01:31;;;;;;;;;;;17.20;79.00;;;;;;5036834;28;19909;-86
2022/03/28 09:04:05;;;;;;;;;;;17.30;78.30;;;;;;5054451;28;19912;-85
2022/03/28 09:06:37;;;;;;;;;;;17.40;78.60;;;;;;5054421;28;20011;-85
2022/03/28 09:09:10;;;;;;;;;;;17.60;77.60;;;;;;5067089;28;19961;-87
2022/03/28 09:11:36;;;;;;;;;;;17.50;76.60;;;;;;5074525;28;19913;-84
2022/03/28 09:14:01;;;;;;;;;;;17.30;77.10;;;;;;5074332;28;19908;-85
2022/03/28 09:16:31;;;;;;;;;;;17.40;77.10;;;;;;5074390;28;20001;-85
2022/03/28 09:18:57;;;;;;;;;;;17.60;77.70;;;;;;5070523;28;19943;-85
2022/03/28 09:21:24;;;;;;;;;;;17.60;78.00;;;;;;5074279;28;20376;-86
2022/03/28 09:23:51;;;;;;;;;;;17.80;77.40;;;;;;5074158;28;20384;-85
2022/03/28 09:26:16;;;;;;;;;;;17.50;78.50;;;;;;5074196;28;19916;-86
2022/03/28 09:28:53;;;;;;;;;;;17.60;78.70;;;;;;5053175;28;19921;-85
2022/03/28 09:31:24;;;;;;;;;;;17.70;77.30;;;;;;5074080;28;19909;-86
2022/03/28 09:33:56;;;;;;;;;;;17.80;76.80;;;;;;5074125;28;19908;-85
2022/03/28 09:36:45;;;;;;;;;;;17.90;78.00;;;;;;5073975;28;20391;-85
2022/03/28 09:39:13;;;;;;;;;;;18.10;75.80;;;;;;5057509;28;19916;-86
2022/03/28 09:41:39;;;;;;;;;;;18.40;75.90;;;;;;5053890;28;19909;-84
2022/03/28 09:44:05;;;;;;;;;;;18.70;74.50;;;;;;5053788;28;19923;-85
2022/03/28 09:46:32;;;;;;;;;;;18.60;74.00;;;;;;5054040;28;19909;-86
2022/03/28 09:48:59;;;;;;;;;;;18.70;74.60;;;;;;5053401;28;19915;-85
2022/03/28 09:51:29;;;;;;;;;;;19.00;73.40;;;;;;5053756;28;20495;-85
2022/03/28 09:53:54;;;;;;;;;;;19.00;72.40;;;;;;5053533;28;19940;-85
2022/03/28 09:56:21;;;;;;;;;;;18.80;73.90;;;;;;5053621;28;19909;-85
2022/03/28 09:59:03;;;;;;;;;;;18.70;73.70;;;;;;5053336;28;19909;-84
2022/03/28 10:01:35;;;;;;;;;;;18.60;74.60;;;;;;5054201;28;19916;-86
2022/03/28 10:04:05;;;;;;;;;;;19.10;75.40;;;;;;5053490;28;20369;-86
2022/03/28 10:06:34;;;;;;;;;;;19.10;73.10;;;;;;5051992;28;19909;-85
2022/03/28 10:09:00;;;;;;;;;;;19.30;73.10;;;;;;5053170;28;19952;-85
2022/03/28 10:11:26;;;;;;;;;;;19.40;72.50;;;;;;5053401;28;20301;-86
2022/03/28 10:13:52;;;;;;;;;;;19.40;71.70;;;;;;5053419;28;19916;-85
2022/03/28 10:16:18;;;;;;;;;;;19.40;72.10;;;;;;5051610;28;20369;-85
2022/03/28 10:18:45;;;;;;;;;;;19.50;72.70;;;;;;5051466;28;19921;-85
2022/03/28 10:21:18;;;;;;;;;;;19.90;71.40;;;;;;5052030;28;20368;-85
2022/03/28 10:23:52;;;;;;;;;;;20.50;70.10;;;;;;5053416;28;20006;-86
2022/03/28 10:26:18;;;;;;;;;;;20.70;69.70;;;;;;5053217;28;19909;-86
2022/03/28 10:28:59;;;;;;;;;;;21.40;68.60;;;;;;5034419;28;19917;-86
2022/03/28 10:31:24;;;;;;;;;;;21.80;68.20;;;;;;5053314;28;19909;-85
2022/03/28 10:33:52;;;;;;;;;;;22.30;65.80;;;;;;5053188;28;20292;-85
2022/03/28 10:36:27;;;;;;;;;;;22.10;66.10;;;;;;5051924;28;19915;-87
2022/03/28 10:38:55;;;;;;;;;;;22.20;67.10;;;;;;5055088;28;20436;-86
2022/03/28 10:41:21;;;;;;;;;;;22.30;65.30;;;;;;5054977;28;19908;-85
2022/03/28 10:43:47;;;;;;;;;;;21.90;66.30;;;;;;5073121;28;19919;-86
2022/03/28 10:46:14;;;;;;;;;;;22.40;66.60;;;;;;5055087;28;20292;-86
2022/03/28 10:48:39;;;;;;;;;;;23.60;63.60;;;;;;5072762;28;19915;-85
2022/03/28 10:51:08;;;;;;;;;;;24.60;62.10;;;;;;5055029;28;20359;-85
2022/03/28 10:53:39;;;;;;;;;;;25.00;59.30;;;;;;5072778;28;19908;-87
2022/03/28 10:56:16;;;;;;;;;;;25.90;58.60;;;;;;5054748;28;19957;-86
2022/03/28 10:58:43;;;;;;;;;;;26.90;56.60;;;;;;5072683;28;19915;-87
2022/03/28 11:01:09;;;;;;;;;;;27.40;55.90;;;;;;5073027;28;20399;-87
2022/03/28 11:03:35;;;;;;;;;;;27.20;54.40;;;;;;5072894;28;19912;-85
2022/03/28 11:06:00;;;;;;;;;;;26.90;54.70;;;;;;5054836;28;19908;-87
2022/03/28 11:08:33;;;;;;;;;;;27.40;53.80;;;;;;5054592;28;19915;-86
2022/03/28 11:11:18;;;;;;;;;;;27.90;52.90;;;;;;5072965;28;19916;-84
2022/03/28 11:14:04;;;;;;;;;;;29.80;51.40;;;;;;5054777;28;19916;-85
2022/03/28 11:16:39;;;;;;;;;;;30.30;49.30;;;;;;5072413;28;20361;-85
2022/03/28 11:19:29;;;;;;;;;;;29.90;48.20;;;;;;5070082;28;19928;-84
2022/03/28 11:21:56;;;;;;;;;;;29.90;48.30;;;;;;5072815;28;19908;-85
2022/03/28 11:24:40;;;;;;;;;;;29.60;48.20;;;;;;5072697;28;20027;-83
2022/03/28 11:27:05;;;;;;;;;;;29.50;48.10;;;;;;5072781;28;19913;-85
2022/03/28 11:29:31;;;;;;;;;;;29.40;48.00;;;;;;5055753;28;19920;-84
2022/03/28 11:31:57;;;;;;;;;;;30.10;47.70;;;;;;5075114;28;19916;-85
2022/03/28 11:34:22;;;;;;;;;;;30.40;46.50;;;;;;5075079;28;19915;-84
2022/03/28 11:36:48;;;;;;;;;;;31.50;46.10;;;;;;5076209;28;19909;-85
2022/03/28 11:39:21;;;;;;;;;;;32.80;45.10;;;;;;5074607;28;20265;-84
2022/03/28 11:41:48;;;;;;;;;;;33.70;43.60;;;;;;5074647;28;19915;-85
2022/03/28 11:44:14;;;;;;;;;;;34.30;43.50;;;;;;5074855;28;19946;-86
2022/03/28 11:46:39;;;;;;;;;;;34.70;42.20;;;;;;5074810;28;20018;-85
2022/03/28 11:49:06;;;;;;;;;;;34.30;42.60;;;;;;5075809;28;19999;-85
2022/03/28 11:51:34;;;;;;;;;;;34.20;41.90;;;;;;5074769;28;20335;-84
2022/03/28 11:54:01;;;;;;;;;;;34.60;42.50;;;;;;5074502;28;19908;-83
2022/03/28 11:56:27;;;;;;;;;;;35.10;42.00;;;;;;5075976;28;19909;-85
2022/03/28 11:59:04;;;;;;;;;;;35.50;41.60;;;;;;5075566;28;19908;-85
2022/03/28 12:01:31;;;;;;;;;;;36.00;40.30;;;;;;5074601;28;19908;-84
2022/03/28 12:03:56;;;;;;;;;;;36.50;39.90;;;;;;5075779;28;19959;-85
2022/03/28 12:06:30;;;;;;;;;;;36.30;39.90;;;;;;5075621;28;19947;-85
2022/03/28 12:08:56;;;;;;;;;;;36.00;40.90;;;;;;5075397;28;19951;-84
2022/03/28 12:11:22;;;;;;;;;;;34.30;40.00;;;;;;5075967;28;19930;-84
2022/03/28 12:13:48;;;;;;;;;;;34.20;40.30;;;;;;5075665;28;19912;-85
2022/03/28 12:16:13;;;;;;;;;;;34.30;40.50;;;;;;5075686;28;19912;-85
2022/03/28 12:18:39;;;;;;;;;;;34.50;41.20;;;;;;5090749;28;19967;-84
2022/03/28 12:21:05;;;;;;;;;;;35.30;40.10;;;;;;5077618;28;19923;-85
2022/03/28 12:23:31;;;;;;;;;;;36.50;39.90;;;;;;5095679;28;19934;-85
2022/03/28 12:26:00;;;;;;;;;;;37.20;38.10;;;;;;5073873;28;19959;-86
2022/03/28 12:28:35;;;;;;;;;;;36.70;38.20;;;;;;5055950;28;19913;-84
2022/03/28 12:31:05;;;;;;;;;;;36.40;38.40;;;;;;5075268;28;19931;-86
2022/03/28 12:33:32;;;;;;;;;;;37.50;38.40;;;;;;5075342;28;19908;-85
2022/03/28 12:36:00;;;;;;;;;;;36.20;36.90;;;;;;5075298;28;19909;-82
2022/03/28 12:38:29;;;;;;;;;;;35.30;37.40;;;;;;5058455;28;20288;-84
2022/03/28 12:40:56;;;;;;;;;;;33.30;36.90;;;;;;5076704;28;20384;-85
2022/03/28 12:43:25;;;;;;;;;;;33.60;37.20;;;;;;5077147;28;19912;-84
2022/03/28 12:45:52;;;;;;;;;;;34.60;37.10;;;;;;5095167;28;20318;-84
2022/03/28 12:48:18;;;;;;;;;;;35.30;36.50;;;;;;5077143;28;19915;-85
2022/03/28 12:50:57;;;;;;;;;;;34.50;34.90;;;;;;5076816;28;19908;-84
2022/03/28 12:53:24;;;;;;;;;;;33.40;34.90;;;;;;5095036;28;20380;-84
2022/03/28 12:55:49;;;;;;;;;;;33.80;35.10;;;;;;5076818;28;20276;-83
2022/03/28 12:58:15;;;;;;;;;;;33.70;35.20;;;;;;5076788;28;19912;-84
2022/03/28 13:00:42;;;;;;;;;;;33.10;35.00;;;;;;5076232;28;19915;-84
2022/03/28 13:03:08;;;;;;;;;;;32.40;34.70;;;;;;5094660;28;19985;-84
2022/03/28 13:05:34;;;;;;;;;;;33.20;34.90;;;;;;5076765;28;20372;-85
2022/03/28 13:08:07;;;;;;;;;;;33.00;36.10;;;;;;5076513;28;19908;-84
2022/03/28 13:10:33;;;;;;;;;;;32.80;36.80;;;;;;5094306;28;19908;-83
2022/03/28 13:13:00;;;;;;;;;;;33.00;36.90;;;;;;5076398;28;20268;-83
2022/03/28 13:15:29;;;;;;;;;;;34.00;35.50;;;;;;5094758;28;19908;-84
2022/03/28 13:18:03;;;;;;;;;;;33.90;34.60;;;;;;5094295;28;19959;-84
2022/03/28 13:20:29;;;;;;;;;;;33.60;35.90;;;;;;5094147;28;20401;-83
2022/03/28 13:22:56;;;;;;;;;;;31.90;36.30;;;;;;5094457;28;19908;-84
2022/03/28 13:25:22;;;;;;;;;;;30.50;38.30;;;;;;5094472;28;19908;-85
2022/03/28 13:28:10;;;;;;;;;;;31.10;38.10;;;;;;5076197;28;19915;-83
2022/03/28 13:30:39;;;;;;;;;;;30.10;39.40;;;;;;5057077;28;20421;-83
2022/03/28 13:33:05;;;;;;;;;;;29.70;38.80;;;;;;5094252;28;19957;-84
2022/03/28 13:35:31;;;;;;;;;;;30.10;39.00;;;;;;5076193;28;19908;-84
2022/03/28 13:38:01;;;;;;;;;;;30.10;39.00;;;;;;5094171;28;20288;-84
2022/03/28 13:40:27;;;;;;;;;;;30.30;39.10;;;;;;5093994;28;20235;-84
2022/03/28 13:42:53;;;;;;;;;;;30.20;38.10;;;;;;5093949;28;19908;-83
2022/03/28 13:45:18;;;;;;;;;;;31.50;38.90;;;;;;5094059;28;19915;-84
2022/03/28 13:47:45;;;;;;;;;;;30.70;38.70;;;;;;5094162;28;19916;-82
2022/03/28 13:50:11;;;;;;;;;;;29.60;38.80;;;;;;5093541;28;20372;-84
2022/03/28 13:52:37;;;;;;;;;;;28.40;39.80;;;;;;5093333;28;19995;-84
2022/03/28 13:55:02;;;;;;;;;;;27.70;40.60;;;;;;5093902;28;19908;-83
2022/03/28 13:57:28;;;;;;;;;;;27.70;41.50;;;;;;5093835;28;19908;-83
2022/03/28 13:59:53;;;;;;;;;;;27.70;40.80;;;;;;5075244;28;19909;-83
2022/03/28 14:02:20;;;;;;;;;;;27.70;40.30;;;;;;5094082;28;19995;-84
2022/03/28 14:04:46;;;;;;;;;;;28.10;41.40;;;;;;5075597;28;20372;-84
2022/03/28 14:07:12;;;;;;;;;;;28.50;40.60;;;;;;5093756;28;19961;-84
2022/03/28 14:09:37;;;;;;;;;;;28.50;40.40;;;;;;5075232;28;19908;-83
2022/03/28 14:12:03;;;;;;;;;;;27.60;40.40;;;;;;5092364;28;19954;-84
2022/03/28 14:14:29;;;;;;;;;;;27.20;40.40;;;;;;5093715;28;20009;-82
2022/03/28 14:16:54;;;;;;;;;;;27.10;41.50;;;;;;5093472;28;20273;-83